createdAt,value
2018-12-05T00:02:53.496Z,70.05
2018-12-05T00:07:56.216Z,69.86
2018-12-05T00:12:59.083Z,70.18
2018-12-05T00:18:02.146Z,69.99
2018-12-05T00:23:04.941Z,70.34
2018-12-05T00:28:07.961Z,71.08
2018-12-05T00:33:10.757Z,70.96
2018-12-05T00:38:13.412Z,70.75
2018-12-05T00:43:33.269Z,71.17
2018-12-05T00:48:36.007Z,71.62
2018-12-05T00:53:38.761Z,71.30
2018-12-05T00:58:41.492Z,71.16
2018-12-05T01:03:44.404Z,71.40
2018-12-05T01:08:48.548Z,71.61
2018-12-05T01:13:51.764Z,71.64
2018-12-05T01:18:54.657Z,71.70
2018-12-05T01:23:57.674Z,71.75
2018-12-05T01:29:00.369Z,71.25
2018-12-05T01:34:03.645Z,71.99
2018-12-05T01:39:07.598Z,71.67
2018-12-05T01:44:10.639Z,72.29
2018-12-05T01:49:13.430Z,72.21
2018-12-05T01:54:17.127Z,72.22
2018-12-05T01:59:20.077Z,71.96
2018-12-05T02:04:22.937Z,72.56
2018-12-05T02:09:25.756Z,72.82
2018-12-05T02:14:28.785Z,72.75
2018-12-05T02:19:31.798Z,72.76
2018-12-05T02:24:34.713Z,72.90
2018-12-05T02:29:43.619Z,73.05
2018-12-05T02:34:46.484Z,72.94
2018-12-05T02:39:49.226Z,72.65
2018-12-05T02:44:52.064Z,72.38
2018-12-05T02:49:54.905Z,73.10
2018-12-05T02:54:57.676Z,72.68
2018-12-05T03:00:00.600Z,73.56
2018-12-05T03:05:04.405Z,73.13
2018-12-05T03:10:07.405Z,73.14
2018-12-05T03:15:10.201Z,73.07
2018-12-05T03:20:13.113Z,73.35
2018-12-05T03:25:15.996Z,73.52
2018-12-05T03:30:18.809Z,73.56
2018-12-05T03:35:26.210Z,74.11
2018-12-05T03:40:29.150Z,73.83
2018-12-05T03:45:31.970Z,74.31
2018-12-05T03:50:34.655Z,74.51
2018-12-05T03:55:37.612Z,74.47
2018-12-05T04:00:40.320Z,74.46
2018-12-05T04:05:43.122Z,74.22
2018-12-05T04:10:46.050Z,74.00
2018-12-05T04:15:50.305Z,74.39
2018-12-05T04:20:53.079Z,74.25
2018-12-05T04:25:55.772Z,74.51
2018-12-05T04:30:58.634Z,74.83
2018-12-05T04:36:03.449Z,74.53
2018-12-05T04:41:06.440Z,74.88
2018-12-05T04:46:09.357Z,74.60
2018-12-05T04:51:12.253Z,74.41
2018-12-05T04:56:15.086Z,74.77
2018-12-05T05:01:18.039Z,74.76
2018-12-05T05:06:20.838Z,74.33
2018-12-05T05:11:23.568Z,74.55
2018-12-05T05:16:26.418Z,74.94
2018-12-05T05:21:29.162Z,75.00
2018-12-05T05:26:32.116Z,74.79
2018-12-05T05:31:35.036Z,74.81
2018-12-05T05:36:37.788Z,75.44
2018-12-05T05:41:40.560Z,75.62
2018-12-05T05:46:44.604Z,75.75
2018-12-05T05:51:47.513Z,75.71
2018-12-05T05:56:50.536Z,75.70
2018-12-05T06:01:53.256Z,76.11
2018-12-05T06:06:56.005Z,76.36
2018-12-05T06:11:58.894Z,77.41
2018-12-05T06:17:01.737Z,77.47
2018-12-05T06:22:04.708Z,77.51
2018-12-05T06:27:07.537Z,77.68
2018-12-05T06:32:10.416Z,77.76
2018-12-05T06:37:12.997Z,77.80
2018-12-05T06:42:15.836Z,77.18
2018-12-05T06:47:18.640Z,77.18
2018-12-05T06:52:21.580Z,77.47
2018-12-05T06:57:24.513Z,77.58
2018-12-05T07:02:27.323Z,77.90
2018-12-05T07:07:30.193Z,77.92
2018-12-05T07:12:33.003Z,77.94
2018-12-05T07:17:35.998Z,77.73
2018-12-05T07:22:38.772Z,77.81
2018-12-05T07:27:41.495Z,77.99
2018-12-05T07:32:44.441Z,77.61
2018-12-05T07:37:47.349Z,77.71
2018-12-05T07:42:50.272Z,76.93
2018-12-05T07:47:53.301Z,76.91
2018-12-05T07:52:56.776Z,76.89
2018-12-05T07:57:59.605Z,77.18
2018-12-05T08:03:02.493Z,76.99
2018-12-05T08:08:06.205Z,77.07
2018-12-05T08:13:09.126Z,77.13
2018-12-05T08:18:11.825Z,76.97
2018-12-05T08:23:14.801Z,76.75
2018-12-05T08:28:17.721Z,77.33
2018-12-05T08:33:20.625Z,77.58
2018-12-05T08:38:23.351Z,76.17
2018-12-05T08:43:26.177Z,76.11
2018-12-05T08:48:29.277Z,75.68
2018-12-05T08:53:32.261Z,75.60
2018-12-05T08:58:35.373Z,74.42
2018-12-05T09:03:38.235Z,74.30
2018-12-05T09:08:41.285Z,73.95
2018-12-05T09:13:44.279Z,72.42
2018-12-05T09:18:47.173Z,71.78
2018-12-05T09:23:50.467Z,70.47
2018-12-05T09:28:57.252Z,69.71
2018-12-05T09:33:58.409Z,67.97
2018-12-05T09:39:01.408Z,66.56
2018-12-05T09:44:06.358Z,63.93
2018-12-05T09:49:09.368Z,63.72
2018-12-05T09:54:12.222Z,62.07
2018-12-05T09:59:15.303Z,61.60
2018-12-05T10:04:18.074Z,59.88
2018-12-05T10:09:20.997Z,58.61
2018-12-05T10:14:23.993Z,57.01
2018-12-05T10:19:27.317Z,57.02
2018-12-05T10:24:30.465Z,56.59
2018-12-05T10:29:33.504Z,55.13
2018-12-05T10:34:36.309Z,53.21
2018-12-05T10:39:39.275Z,54.37
2018-12-05T10:44:43.167Z,54.57
2018-12-05T10:49:47.082Z,56.58
2018-12-05T10:54:50.028Z,57.37
2018-12-05T10:59:52.753Z,58.16
2018-12-05T11:05:01.457Z,59.05
2018-12-05T11:10:10.402Z,59.39
2018-12-05T11:15:19.229Z,60.23
2018-12-05T11:20:28.236Z,60.04
2018-12-05T11:25:31.287Z,60.22
2018-12-05T11:30:34.473Z,60.01
2018-12-05T11:35:37.526Z,59.54
2018-12-05T11:40:40.577Z,59.60
2018-12-05T11:45:44.207Z,59.25
2018-12-05T11:50:47.092Z,58.38
2018-12-05T11:55:50.170Z,58.38
2018-12-05T12:00:53.030Z,58.14
2018-12-05T12:05:55.982Z,58.07
2018-12-05T12:11:00.859Z,57.19
2018-12-05T12:16:03.900Z,56.73
2018-12-05T12:21:06.837Z,53.88
2018-12-05T12:26:09.863Z,53.28
2018-12-05T12:31:12.747Z,53.19
2018-12-05T12:36:15.525Z,52.19
2018-12-05T12:41:18.408Z,51.46
2018-12-05T12:46:21.225Z,50.99
2018-12-05T12:51:24.201Z,51.40
2018-12-05T12:56:27.320Z,50.30
2018-12-05T13:01:30.268Z,50.21
2018-12-05T13:06:33.128Z,49.98
2018-12-05T13:11:36.018Z,50.63
2018-12-05T13:16:38.957Z,50.64
2018-12-05T13:21:41.861Z,50.81
2018-12-05T13:26:44.793Z,50.65
2018-12-05T13:31:47.721Z,50.61
2018-12-05T13:36:50.725Z,51.05
2018-12-05T13:41:53.869Z,49.98
2018-12-05T13:46:56.834Z,49.72
2018-12-05T13:52:01.257Z,50.41
2018-12-05T13:57:04.202Z,50.50
2018-12-05T14:02:07.734Z,51.11
2018-12-05T14:07:10.807Z,51.86
2018-12-05T14:12:19.651Z,52.52
2018-12-05T14:17:22.417Z,52.79
2018-12-05T14:22:25.308Z,53.63
2018-12-05T14:27:28.333Z,53.81
2018-12-05T14:32:31.281Z,54.67
2018-12-05T14:37:34.124Z,54.66
2018-12-05T14:42:37.002Z,54.67
2018-12-05T14:47:39.597Z,55.35
2018-12-05T14:52:42.259Z,55.59
2018-12-05T14:57:45.125Z,55.71
2018-12-05T15:02:47.816Z,55.75
2018-12-05T15:07:50.491Z,56.16
2018-12-05T15:12:53.211Z,56.33
2018-12-05T15:17:56.245Z,56.73
2018-12-05T15:22:59.015Z,57.21
2018-12-05T15:28:01.992Z,57.53
2018-12-05T15:33:05.307Z,57.54
2018-12-05T15:38:08.540Z,57.26
2018-12-05T15:43:11.386Z,57.91
2018-12-05T15:48:14.450Z,58.41
2018-12-05T15:53:17.204Z,58.50
2018-12-05T15:58:20.033Z,58.97
2018-12-05T16:03:22.901Z,59.37
2018-12-05T16:08:25.694Z,59.23
2018-12-05T16:13:28.773Z,59.63
2018-12-05T16:18:31.650Z,59.47
2018-12-05T16:23:34.374Z,60.67
2018-12-05T16:28:37.241Z,60.70
2018-12-05T16:33:40.372Z,60.90
2018-12-05T16:38:43.373Z,60.98
2018-12-05T16:43:46.347Z,61.67
2018-12-05T16:48:49.221Z,61.57
2018-12-05T16:53:52.167Z,62.23
2018-12-05T16:58:54.958Z,62.40
2018-12-05T17:03:57.994Z,62.68
2018-12-05T17:09:01.587Z,62.82
2018-12-05T17:14:06.533Z,62.82
2018-12-05T17:19:09.886Z,63.14
2018-12-05T17:24:12.649Z,63.17
2018-12-05T17:29:15.539Z,63.22
2018-12-05T17:34:18.512Z,63.87
2018-12-05T17:39:21.433Z,63.60
2018-12-05T17:44:24.383Z,63.79
2018-12-05T17:49:27.180Z,64.19
2018-12-05T17:54:29.980Z,64.38
2018-12-05T17:59:32.518Z,64.08
2018-12-05T18:04:35.310Z,64.43
2018-12-05T18:09:38.037Z,63.93
2018-12-05T18:14:41.055Z,64.59
2018-12-05T18:19:44.280Z,64.59
2018-12-05T18:24:47.786Z,64.84
2018-12-05T18:29:50.333Z,64.58
2018-12-05T18:34:53.132Z,65.11
2018-12-05T18:39:55.797Z,65.05
2018-12-05T18:44:58.520Z,64.98
2018-12-05T18:50:01.309Z,65.40
2018-12-05T18:55:04.777Z,66.00
2018-12-05T19:00:10.178Z,66.52
2018-12-05T19:05:13.224Z,66.66
2018-12-05T19:10:15.948Z,66.68
2018-12-05T19:15:19.262Z,67.38
2018-12-05T19:20:22.103Z,67.31
2018-12-05T19:25:25.073Z,67.65
2018-12-05T19:30:27.860Z,67.57
2018-12-05T19:35:30.596Z,67.48
2018-12-05T19:40:33.266Z,67.94
2018-12-05T19:45:36.177Z,67.93
2018-12-05T19:50:39.114Z,67.88
2018-12-05T19:55:41.908Z,68.03
2018-12-05T20:00:44.793Z,67.17
2018-12-05T20:05:47.775Z,67.53
2018-12-05T20:10:50.577Z,67.43
2018-12-05T20:15:53.477Z,67.38
2018-12-05T20:20:56.260Z,66.71
2018-12-05T20:25:58.997Z,66.38
2018-12-05T20:31:01.992Z,66.49
2018-12-05T20:36:05.089Z,66.00
2018-12-05T20:41:08.149Z,66.12
2018-12-05T20:46:11.069Z,65.85
2018-12-05T20:51:14.351Z,65.81
2018-12-05T20:56:17.196Z,65.89
2018-12-05T21:01:20.090Z,65.54
2018-12-05T21:06:23.064Z,64.86
2018-12-05T21:11:26.913Z,64.94
2018-12-05T21:16:29.799Z,64.00
2018-12-05T21:21:32.717Z,64.33
2018-12-05T21:26:35.392Z,63.84
2018-12-05T21:31:38.033Z,63.57
2018-12-05T21:36:40.815Z,64.12
2018-12-05T21:41:43.809Z,64.08
2018-12-05T21:46:46.486Z,64.64
2018-12-05T21:51:49.241Z,64.79
2018-12-05T21:56:52.080Z,64.64
2018-12-05T22:01:54.965Z,64.42
2018-12-05T22:06:57.747Z,64.48
2018-12-05T22:12:00.460Z,64.35
2018-12-05T22:17:03.304Z,64.49
2018-12-05T22:22:06.050Z,64.67
2018-12-05T22:27:08.961Z,64.86
2018-12-05T22:32:11.665Z,64.32
2018-12-05T22:37:14.402Z,64.18
2018-12-05T22:42:17.056Z,64.22
2018-12-05T22:47:20.008Z,64.08
2018-12-05T22:52:22.921Z,64.91
2018-12-05T22:57:25.663Z,64.41
2018-12-05T23:02:28.542Z,64.28
2018-12-05T23:07:31.337Z,63.98
2018-12-05T23:12:34.406Z,63.84
2018-12-05T23:17:37.377Z,63.89
2018-12-05T23:22:40.171Z,63.89
2018-12-05T23:27:42.800Z,64.43
2018-12-05T23:32:45.773Z,64.21
2018-12-05T23:37:48.602Z,64.32
2018-12-05T23:42:51.613Z,64.42
2018-12-05T23:47:54.381Z,64.20
2018-12-05T23:52:58.349Z,64.29
2018-12-05T23:58:01.113Z,64.18
